Time;durP1;ratioP1;P1;durP2;ratioP2;P2;SDS_P1;SDS_P2;PMS_P1;PMS_P2;Temp;Humidity;BMP_temperature;BMP_pressure;BME280_temperature;BME280_humidity;BME280_pressure;Samples;Min_cycle;Max_cycle;Signal;HPM_P1;HPM_P2
2021/03/18 00:00:38;;;;;;;16.98;5.85;;;0.10;99.90;;;;;;5130250;27;20152;-62
2021/03/18 00:03:05;;;;;;;16.83;5.03;;;0.10;99.90;;;;;;5130157;27;20075;-62
2021/03/18 00:05:30;;;;;;;17.88;4.90;;;0.10;99.90;;;;;;5129880;27;20046;-62
2021/03/18 00:07:56;;;;;;;24.50;5.43;;;0.10;99.90;;;;;;5129340;27;20043;-62
2021/03/18 00:10:22;;;;;;;19.00;5.77;;;0.00;99.90;;;;;;5129240;27;20502;-61
2021/03/18 00:12:47;;;;;;;17.87;5.70;;;0.00;99.90;;;;;;5130011;27;20070;-61
2021/03/18 00:15:14;;;;;;;19.03;5.60;;;-0.10;99.90;;;;;;5130047;27;20057;-61
2021/03/18 00:17:40;;;;;;;15.82;5.32;;;-0.10;99.90;;;;;;5129881;27;20450;-62
2021/03/18 00:20:13;;;;;;;26.07;7.13;;;-0.10;99.90;;;;;;5129177;27;20043;-61
2021/03/18 00:22:43;;;;;;;20.80;5.95;;;-0.10;99.90;;;;;;5129789;27;20050;-62
2021/03/18 00:25:11;;;;;;;19.23;6.10;;;-0.20;99.90;;;;;;5129411;27;20047;-61
2021/03/18 00:27:38;;;;;;;19.25;6.22;;;-0.20;99.90;;;;;;5129113;27;20069;-61
2021/03/18 00:30:05;;;;;;;18.10;6.10;;;-0.20;99.90;;;;;;5129615;27;20094;-61
2021/03/18 00:32:32;;;;;;;15.45;5.88;;;-0.20;99.90;;;;;;5127699;27;20146;-61
2021/03/18 00:34:59;;;;;;;20.63;6.32;;;-0.20;99.90;;;;;;5127919;27;20163;-61
2021/03/18 00:37:24;;;;;;;17.93;6.47;;;-0.20;99.90;;;;;;5128999;27;20043;-60
2021/03/18 00:39:54;;;;;;;21.07;7.23;;;-0.20;99.90;;;;;;5129347;27;20074;-60
2021/03/18 00:42:21;;;;;;;22.90;6.68;;;-0.10;99.90;;;;;;5129580;27;20102;-61
2021/03/18 00:44:48;;;;;;;27.05;6.60;;;-0.20;99.90;;;;;;5128968;27;20219;-61
2021/03/18 00:47:14;;;;;;;23.70;7.25;;;-0.20;99.90;;;;;;5129329;27;20142;-61
2021/03/18 00:49:40;;;;;;;19.30;6.93;;;-0.20;99.90;;;;;;5129275;27;20134;-62
2021/03/18 00:52:06;;;;;;;20.67;6.30;;;-0.20;99.90;;;;;;5128965;27;20178;-62
2021/03/18 00:54:31;;;;;;;18.50;7.67;;;-0.20;99.90;;;;;;5128888;27;20051;-59
2021/03/18 00:56:57;;;;;;;19.23;7.37;;;-0.20;99.90;;;;;;5129271;27;20236;-59
2021/03/18 00:59:23;;;;;;;23.63;8.77;;;-0.20;99.90;;;;;;5129320;27;20120;-60
2021/03/18 01:01:48;;;;;;;22.17;8.10;;;-0.20;99.90;;;;;;5129497;27;20047;-61
2021/03/18 01:04:14;;;;;;;24.90;7.30;;;-0.20;99.90;;;;;;5129005;27;20043;-61
2021/03/18 01:06:40;;;;;;;17.03;6.03;;;-0.20;99.90;;;;;;5129296;27;20399;-61
2021/03/18 01:09:07;;;;;;;19.07;6.17;;;-0.20;99.90;;;;;;5129151;27;20438;-60
2021/03/18 01:11:36;;;;;;;22.20;6.28;;;-0.20;99.90;;;;;;5127771;27;20047;-60
2021/03/18 01:14:06;;;;;;;19.67;6.43;;;-0.10;99.90;;;;;;5128863;27;20478;-60
2021/03/18 01:16:36;;;;;;;19.63;6.32;;;-0.10;99.90;;;;;;5129068;27;20051;-61
2021/03/18 01:19:05;;;;;;;20.30;7.05;;;-0.10;99.90;;;;;;5127879;27;20057;-62
2021/03/18 01:21:34;;;;;;;19.92;8.40;;;-0.10;99.90;;;;;;5128727;27;20058;-62
2021/03/18 01:24:02;;;;;;;23.02;7.97;;;0.00;99.90;;;;;;5129102;27;20106;-62
2021/03/18 01:26:28;;;;;;;18.45;7.57;;;0.00;99.90;;;;;;5129416;27;20115;-62
2021/03/18 01:28:54;;;;;;;25.87;7.00;;;0.00;99.90;;;;;;5128547;27;20047;-61
2021/03/18 01:31:20;;;;;;;17.83;6.00;;;0.00;99.90;;;;;;5128469;27;20057;-62
2021/03/18 01:33:46;;;;;;;16.60;6.13;;;0.00;99.90;;;;;;5128618;27;20134;-61
2021/03/18 01:36:13;;;;;;;23.00;7.53;;;0.00;99.90;;;;;;5128615;27;20043;-62
2021/03/18 01:38:43;;;;;;;19.88;8.13;;;0.10;99.90;;;;;;5128507;27;20047;-61
2021/03/18 01:41:09;;;;;;;25.40;11.00;;;0.20;99.90;;;;;;5128805;27;20058;-61
2021/03/18 01:43:35;;;;;;;19.27;7.20;;;0.20;99.90;;;;;;5128547;27;20043;-61
2021/03/18 01:46:02;;;;;;;20.73;7.40;;;0.20;99.90;;;;;;5128573;27;20067;-61
2021/03/18 01:48:28;;;;;;;17.63;7.53;;;0.20;99.90;;;;;;5128411;27;20408;-62
2021/03/18 01:50:55;;;;;;;19.07;6.47;;;0.20;99.90;;;;;;5127188;27;20051;-62
2021/03/18 01:53:22;;;;;;;28.38;8.15;;;0.20;99.90;;;;;;5128319;27;20114;-62
2021/03/18 01:55:50;;;;;;;26.92;7.22;;;0.20;99.90;;;;;;5128055;27;20122;-62
2021/03/18 01:58:16;;;;;;;17.02;8.25;;;0.20;99.90;;;;;;5128572;27;20047;-62
2021/03/18 02:00:45;;;;;;;26.90;9.90;;;0.30;99.90;;;;;;5128212;27;20043;-61
2021/03/18 02:03:11;;;;;;;20.73;7.47;;;0.20;99.90;;;;;;5128181;27;20047;-62
2021/03/18 02:05:36;;;;;;;15.82;7.40;;;0.20;99.90;;;;;;5127931;28;20456;-62
2021/03/18 02:08:03;;;;;;;18.87;7.27;;;0.40;99.90;;;;;;5127903;28;20145;-61
2021/03/18 02:10:32;;;;;;;23.42;7.00;;;0.10;99.90;;;;;;5128183;27;20058;-61
2021/03/18 02:12:58;;;;;;;19.27;7.45;;;0.10;99.90;;;;;;5127845;27;20135;-61
2021/03/18 02:15:28;;;;;;;20.08;7.32;;;0.00;99.90;;;;;;5127924;27;20075;-61
2021/03/18 02:18:15;;;;;;;25.48;7.60;;;0.00;99.90;;;;;;5128233;27;20047;-61
2021/03/18 02:20:49;;;;;;;24.42;7.78;;;0.00;99.90;;;;;;5127902;27;20051;-61
2021/03/18 02:23:49;;;;;;;23.42;8.27;;;0.00;99.90;;;;;;5127931;28;20039;-61
2021/03/18 02:26:48;;;;;;;22.65;7.85;;;0.00;99.90;;;;;;5127991;28;20124;-62
2021/03/18 02:29:36;;;;;;;26.70;7.85;;;0.00;99.90;;;;;;5128080;27;20051;-62
2021/03/18 02:32:16;;;;;;;31.70;8.48;;;0.00;99.90;;;;;;5131633;27;20501;-61
2021/03/18 02:35:16;;;;;;;21.70;8.20;;;-0.10;99.90;;;;;;5131677;27;20434;-61
2021/03/18 02:37:50;;;;;;;27.88;10.68;;;-0.10;99.90;;;;;;5131567;27;20043;-61
2021/03/18 02:40:21;;;;;;;29.02;9.43;;;0.00;99.90;;;;;;5131683;27;20384;-60
2021/03/18 02:42:58;;;;;;;19.95;9.13;;;-0.10;99.90;;;;;;5131625;27;20377;-60
2021/03/18 02:45:30;;;;;;;23.65;8.77;;;-0.10;99.90;;;;;;5131691;27;20043;-62
2021/03/18 02:47:58;;;;;;;19.70;7.82;;;-0.10;99.90;;;;;;5130109;27;20055;-61
2021/03/18 02:50:26;;;;;;;32.88;9.75;;;-0.10;99.90;;;;;;5131500;27;20118;-62
2021/03/18 02:52:54;;;;;;;24.38;8.00;;;-0.10;99.90;;;;;;5130841;27;20054;-61
2021/03/18 02:55:22;;;;;;;24.98;8.73;;;-0.10;99.90;;;;;;5130063;27;20071;-62
2021/03/18 02:57:49;;;;;;;20.58;9.55;;;-0.20;99.90;;;;;;5131716;27;20129;-61
2021/03/18 03:00:16;;;;;;;30.13;10.48;;;-0.20;99.90;;;;;;5130973;27;20393;-61
2021/03/18 03:02:42;;;;;;;22.70;9.68;;;-0.20;99.90;;;;;;5131236;27;20078;-61
2021/03/18 03:05:09;;;;;;;16.70;8.80;;;-0.20;99.90;;;;;;5131580;27;20143;-62
2021/03/18 03:07:36;;;;;;;29.20;9.18;;;-0.20;99.90;;;;;;5130964;27;20303;-62
2021/03/18 03:10:06;;;;;;;20.65;8.23;;;-0.30;99.90;;;;;;5130919;27;20079;-61
2021/03/18 03:12:33;;;;;;;23.15;9.40;;;-0.30;99.90;;;;;;5131356;27;20039;-62
2021/03/18 03:15:00;;;;;;;20.48;9.00;;;-0.30;99.90;;;;;;5130916;27;20055;-61
2021/03/18 03:17:28;;;;;;;20.35;9.57;;;-0.30;99.90;;;;;;5129685;27;20439;-61
2021/03/18 03:19:56;;;;;;;21.50;9.88;;;-0.20;99.90;;;;;;5130700;27;20389;-62
2021/03/18 03:22:22;;;;;;;23.50;10.18;;;-0.20;99.90;;;;;;5131005;27;20047;-62
2021/03/18 03:24:50;;;;;;;25.08;9.77;;;-0.20;99.90;;;;;;5130675;27;20330;-62
2021/03/18 03:27:18;;;;;;;30.17;10.88;;;-0.20;99.90;;;;;;5130164;27;20043;-62
2021/03/18 03:29:45;;;;;;;27.90;9.80;;;-0.30;99.90;;;;;;5130814;27;20079;-62
2021/03/18 03:32:13;;;;;;;27.33;9.18;;;-0.30;99.90;;;;;;5130699;27;20079;-62
2021/03/18 03:34:40;;;;;;;25.38;8.73;;;-0.40;99.90;;;;;;5130339;27;20039;-61
2021/03/18 03:37:07;;;;;;;23.33;8.75;;;-0.40;99.90;;;;;;5130801;27;20134;-61
2021/03/18 03:39:35;;;;;;;24.67;8.93;;;-0.40;99.90;;;;;;5130847;27;20043;-61
2021/03/18 03:42:03;;;;;;;22.48;8.98;;;-0.40;99.90;;;;;;5127882;27;20148;-63
2021/03/18 03:44:29;;;;;;;22.38;9.73;;;-0.50;99.90;;;;;;5130129;27;20047;-62
2021/03/18 03:46:54;;;;;;;23.93;9.63;;;-0.60;99.90;;;;;;5130315;27;20043;-62
2021/03/18 03:49:20;;;;;;;28.77;9.87;;;-0.50;99.90;;;;;;5130331;27;20039;-60
2021/03/18 03:52:21;;;;;;;23.20;10.32;;;-0.60;99.90;;;;;;5130151;27;20062;-62
2021/03/18 03:54:56;;;;;;;32.65;9.80;;;-0.50;99.90;;;;;;5130300;27;20055;-61
2021/03/18 03:57:29;;;;;;;23.05;9.55;;;-0.50;99.90;;;;;;5130017;27;20062;-61
2021/03/18 03:59:56;;;;;;;25.40;10.70;;;-0.50;99.90;;;;;;5130151;27;20051;-62
2021/03/18 04:02:25;;;;;;;35.60;11.77;;;-0.40;99.90;;;;;;5131348;27;20073;-62
2021/03/18 04:04:52;;;;;;;30.35;14.52;;;-0.40;99.90;;;;;;5133057;27;20043;-62
2021/03/18 04:07:22;;;;;;;36.03;13.10;;;-0.40;99.90;;;;;;5132959;27;20115;-64
2021/03/18 04:09:49;;;;;;;25.05;11.20;;;-0.30;99.90;;;;;;5131320;27;20047;-64
2021/03/18 04:12:18;;;;;;;24.08;10.30;;;-0.30;99.90;;;;;;5131329;27;20054;-65
2021/03/18 04:14:56;;;;;;;29.23;10.65;;;-0.30;99.90;;;;;;5129524;27;20075;-62
2021/03/18 04:17:24;;;;;;;21.35;11.13;;;-0.20;99.90;;;;;;5129799;27;20485;-61
2021/03/18 04:19:53;;;;;;;25.55;10.68;;;-0.20;99.90;;;;;;5129531;27;20133;-59
2021/03/18 04:22:21;;;;;;;27.95;11.15;;;-0.20;99.90;;;;;;5129599;27;20055;-61
2021/03/18 04:24:49;;;;;;;29.17;12.20;;;-0.20;99.90;;;;;;5129511;27;20066;-61
2021/03/18 04:27:17;;;;;;;21.63;11.48;;;-0.20;99.90;;;;;;5129638;27;20133;-61
2021/03/18 04:29:43;;;;;;;31.30;11.77;;;-0.20;99.90;;;;;;5129062;27;20043;-61
2021/03/18 04:32:10;;;;;;;26.60;10.88;;;-0.10;99.90;;;;;;5129349;27;20431;-61
2021/03/18 04:34:38;;;;;;;24.30;10.27;;;-0.10;99.90;;;;;;5129624;27;20424;-61
2021/03/18 04:37:07;;;;;;;31.23;10.68;;;-0.10;99.90;;;;;;5129382;27;20071;-61
2021/03/18 04:39:34;;;;;;;30.35;11.60;;;-0.10;99.90;;;;;;5129258;27;20437;-61
2021/03/18 04:42:02;;;;;;;28.38;11.05;;;-0.10;99.90;;;;;;5129437;27;20047;-62
2021/03/18 04:44:28;;;;;;;26.42;11.32;;;-0.10;99.90;;;;;;5129127;27;20047;-61
2021/03/18 04:46:55;;;;;;;36.60;13.15;;;-0.10;99.90;;;;;;5128964;27;20497;-61
2021/03/18 04:49:23;;;;;;;31.63;12.55;;;0.00;99.90;;;;;;5129015;27;20047;-60
2021/03/18 04:51:49;;;;;;;34.30;13.52;;;0.00;99.90;;;;;;5129180;27;20492;-60
2021/03/18 04:54:15;;;;;;;30.03;11.60;;;0.00;99.90;;;;;;5128816;27;20047;-61
2021/03/18 04:56:44;;;;;;;30.60;11.93;;;0.10;99.90;;;;;;5129176;27;20055;-62
2021/03/18 04:59:13;;;;;;;24.58;10.77;;;0.10;99.90;;;;;;5129193;27;20393;-62
2021/03/18 05:01:42;;;;;;;26.40;11.13;;;0.10;99.90;;;;;;5129186;27;20399;-61
2021/03/18 05:04:10;;;;;;;24.33;10.77;;;0.10;99.90;;;;;;5128771;27;20401;-61
2021/03/18 05:06:36;;;;;;;28.45;12.57;;;0.20;99.90;;;;;;5129267;27;20062;-61
2021/03/18 05:09:03;;;;;;;24.67;11.93;;;0.20;99.90;;;;;;5129086;27;20043;-60
2021/03/18 05:11:29;;;;;;;27.77;11.45;;;0.20;99.90;;;;;;5129045;27;20697;-62
2021/03/18 05:13:55;;;;;;;29.23;12.43;;;0.20;99.90;;;;;;5128732;27;20490;-62
2021/03/18 05:16:22;;;;;;;28.47;11.40;;;0.30;99.90;;;;;;5128698;27;20079;-61
2021/03/18 05:18:48;;;;;;;32.25;12.65;;;0.30;99.90;;;;;;5112301;27;20720;-62
2021/03/18 05:21:14;;;;;;;25.75;12.32;;;0.30;99.90;;;;;;5108210;28;20069;-61
2021/03/18 05:23:41;;;;;;;38.30;13.18;;;0.40;99.90;;;;;;5108172;28;20043;-62
2021/03/18 05:26:08;;;;;;;35.40;12.70;;;0.40;99.90;;;;;;5108201;28;20055;-62
2021/03/18 05:28:34;;;;;;;30.17;13.10;;;0.40;99.90;;;;;;5108352;28;20055;-62
2021/03/18 05:31:00;;;;;;;31.33;14.02;;;0.40;99.90;;;;;;5108563;28;20239;-62
2021/03/18 05:33:25;;;;;;;29.63;13.20;;;0.40;99.90;;;;;;5107441;28;20074;-61
2021/03/18 05:35:51;;;;;;;35.17;13.47;;;0.50;99.90;;;;;;5107589;28;20059;-62
2021/03/18 05:38:17;;;;;;;28.87;12.97;;;0.50;99.90;;;;;;5107687;28;20062;-61
2021/03/18 05:40:47;;;;;;;27.73;12.93;;;0.60;99.90;;;;;;5107978;28;20128;-62
2021/03/18 05:43:13;;;;;;;26.38;12.20;;;0.60;99.90;;;;;;5108261;28;20169;-61
2021/03/18 05:45:38;;;;;;;31.97;13.50;;;0.60;99.90;;;;;;5107555;28;20052;-61
2021/03/18 05:48:05;;;;;;;41.40;14.23;;;0.70;99.90;;;;;;5108176;28;20040;-62
2021/03/18 05:50:32;;;;;;;31.80;12.63;;;0.70;99.90;;;;;;5107920;28;20479;-62
2021/03/18 05:53:03;;;;;;;29.20;13.50;;;0.70;99.90;;;;;;5107768;28;20121;-61
2021/03/18 05:55:29;;;;;;;34.55;14.45;;;0.80;99.90;;;;;;5107435;28;20051;-61
2021/03/18 05:57:56;;;;;;;33.92;13.57;;;0.90;99.90;;;;;;5107338;28;20100;-61
2021/03/18 06:00:23;;;;;;;24.42;12.90;;;0.90;99.90;;;;;;5107828;28;20082;-61
2021/03/18 06:02:49;;;;;;;35.33;12.43;;;0.90;99.90;;;;;;5107717;28;20043;-62
2021/03/18 06:05:16;;;;;;;34.75;12.63;;;1.00;99.90;;;;;;5110279;28;20105;-61
2021/03/18 06:07:44;;;;;;;26.73;13.40;;;1.00;99.90;;;;;;5111782;28;20126;-63
2021/03/18 06:10:13;;;;;;;28.83;12.80;;;1.10;99.90;;;;;;5111788;28;20142;-61
2021/03/18 06:12:40;;;;;;;34.50;13.93;;;1.10;99.90;;;;;;5111501;28;20459;-63
2021/03/18 06:15:08;;;;;;;26.42;13.40;;;1.10;99.90;;;;;;5111572;27;20149;-63
2021/03/18 06:17:37;;;;;;;35.58;13.30;;;1.20;99.90;;;;;;5112098;28;20143;-63
2021/03/18 06:20:05;;;;;;;30.17;13.85;;;1.20;99.90;;;;;;5111682;28;20066;-63
2021/03/18 06:22:37;;;;;;;27.48;13.27;;;1.20;99.90;;;;;;5111148;28;20048;-63
2021/03/18 06:25:23;;;;;;;34.50;15.05;;;1.30;99.90;;;;;;5111530;28;20095;-63
2021/03/18 06:28:09;;;;;;;29.90;14.38;;;1.30;99.90;;;;;;5109810;28;20047;-63
2021/03/18 06:30:36;;;;;;;35.78;14.23;;;1.40;99.90;;;;;;5111672;28;20120;-61
2021/03/18 06:33:19;;;;;;;37.05;15.77;;;1.40;99.90;;;;;;5110939;27;20060;-62
2021/03/18 06:35:45;;;;;;;32.13;13.98;;;1.30;99.90;;;;;;5111460;28;20230;-61
2021/03/18 06:38:11;;;;;;;33.40;16.03;;;1.50;99.90;;;;;;5112130;28;20134;-61
2021/03/18 06:40:46;;;;;;;33.60;14.63;;;1.60;99.90;;;;;;5111357;28;20051;-63
2021/03/18 06:43:12;;;;;;;32.47;14.73;;;1.60;99.90;;;;;;5110576;28;20470;-63
2021/03/18 06:45:43;;;;;;;42.70;15.07;;;1.60;99.90;;;;;;5110757;28;20185;-63
2021/03/18 06:48:15;;;;;;;34.50;15.48;;;1.70;99.90;;;;;;5110031;28;20044;-63
2021/03/18 06:50:47;;;;;;;33.13;13.88;;;1.80;99.90;;;;;;5109921;28;20043;-63
2021/03/18 06:53:28;;;;;;;30.55;13.90;;;1.90;99.90;;;;;;5109883;27;20051;-62
2021/03/18 06:55:55;;;;;;;31.80;13.70;;;1.90;99.90;;;;;;5109693;28;20519;-63
2021/03/18 06:58:23;;;;;;;38.17;14.02;;;1.90;99.90;;;;;;5109384;28;20118;-62
2021/03/18 07:00:52;;;;;;;29.98;13.85;;;2.00;99.90;;;;;;5109832;28;20055;-62
2021/03/18 07:03:38;;;;;;;28.83;13.00;;;2.10;99.90;;;;;;5110651;28;20096;-63
2021/03/18 07:06:25;;;;;;;30.38;14.00;;;2.10;99.90;;;;;;5110419;28;20071;-63
2021/03/18 07:09:02;;;;;;;33.60;14.35;;;2.20;99.90;;;;;;5110605;28;20095;-62
2021/03/18 07:11:28;;;;;;;29.63;14.52;;;2.30;99.90;;;;;;5110675;28;20048;-62
2021/03/18 07:13:54;;;;;;;34.23;14.57;;;2.30;99.90;;;;;;5110388;28;20040;-62
2021/03/18 07:16:19;;;;;;;29.50;13.10;;;2.40;99.90;;;;;;5111032;27;20058;-63
2021/03/18 07:18:58;;;;;;;30.70;15.03;;;2.50;99.90;;;;;;5115003;28;20047;-59
2021/03/18 07:21:54;;;;;;;32.03;13.85;;;2.50;99.90;;;;;;5109864;27;20055;-60
2021/03/18 07:24:37;;;;;;;31.90;15.68;;;2.60;99.90;;;;;;5092315;27;20123;-62
2021/03/18 07:27:16;;;;;;;32.47;14.15;;;2.60;99.90;;;;;;5107550;28;20055;-62
2021/03/18 07:29:44;;;;;;;26.30;13.20;;;2.70;99.90;;;;;;5094719;28;20153;-62
2021/03/18 07:32:11;;;;;;;34.03;14.80;;;2.80;99.90;;;;;;5108577;28;20636;-62
2021/03/18 07:34:38;;;;;;;32.30;13.95;;;2.80;99.90;;;;;;5098234;28;20400;-62
2021/03/18 07:37:07;;;;;;;29.83;14.00;;;2.90;99.90;;;;;;5110669;28;20052;-63
2021/03/18 07:39:34;;;;;;;27.77;14.13;;;3.00;99.90;;;;;;5111803;28;20067;-63
2021/03/18 07:42:01;;;;;;;30.27;13.35;;;3.00;99.90;;;;;;5112110;28;20139;-62
2021/03/18 07:44:28;;;;;;;29.77;12.70;;;3.00;99.90;;;;;;5112720;28;20466;-63
2021/03/18 07:46:55;;;;;;;35.10;13.80;;;3.10;99.90;;;;;;5113288;28;20142;-63
2021/03/18 07:49:27;;;;;;;36.13;14.23;;;3.10;99.90;;;;;;5112142;28;20482;-63
2021/03/18 07:51:57;;;;;;;33.42;14.38;;;3.20;99.90;;;;;;5111546;28;20051;-63
2021/03/18 07:54:24;;;;;;;32.10;12.43;;;3.20;99.90;;;;;;5110748;28;20185;-63
2021/03/18 07:56:52;;;;;;;25.75;12.10;;;3.20;99.90;;;;;;5109931;28;20047;-63
2021/03/18 07:59:19;;;;;;;29.48;11.25;;;3.30;99.90;;;;;;5111893;28;20051;-63
2021/03/18 08:01:45;;;;;;;25.85;11.13;;;3.30;99.90;;;;;;5111217;28;20206;-62
2021/03/18 08:04:13;;;;;;;22.23;10.50;;;3.30;99.90;;;;;;5112462;27;20043;-62
2021/03/18 08:06:39;;;;;;;25.98;10.48;;;3.40;99.90;;;;;;5113227;28;20100;-62
2021/03/18 08:09:37;;;;;;;28.00;11.60;;;3.40;99.90;;;;;;5112226;28;20048;-62
2021/03/18 08:12:04;;;;;;;30.02;12.75;;;3.40;99.90;;;;;;5114042;28;20047;-63
2021/03/18 08:14:30;;;;;;;29.90;12.05;;;3.40;99.90;;;;;;5113223;28;20047;-62
2021/03/18 08:16:56;;;;;;;24.23;11.33;;;3.50;99.90;;;;;;5113774;28;20065;-62
2021/03/18 08:19:22;;;;;;;21.42;10.95;;;3.60;99.90;;;;;;5112555;28;20052;-63
2021/03/18 08:21:52;;;;;;;23.77;11.13;;;3.60;99.90;;;;;;5110603;28;20097;-61
2021/03/18 08:24:21;;;;;;;26.88;11.43;;;3.70;99.90;;;;;;5110784;28;20050;-62
2021/03/18 08:27:02;;;;;;;26.83;11.48;;;3.80;99.90;;;;;;5109942;28;20149;-62
2021/03/18 08:29:38;;;;;;;29.85;12.68;;;3.80;99.90;;;;;;5111196;28;20146;-62
2021/03/18 08:32:05;;;;;;;29.77;13.52;;;3.90;99.90;;;;;;5110684;28;20054;-62
2021/03/18 08:35:00;;;;;;;29.98;13.48;;;3.90;99.90;;;;;;5110408;28;20051;-62
2021/03/18 08:37:41;;;;;;;24.67;11.65;;;4.00;99.90;;;;;;5110182;28;20059;-63
2021/03/18 08:40:18;;;;;;;25.48;11.50;;;4.10;99.90;;;;;;5110169;28;20064;-62
2021/03/18 08:42:45;;;;;;;19.98;12.15;;;4.20;99.90;;;;;;5110882;28;20044;-63
2021/03/18 08:45:20;;;;;;;35.33;12.23;;;4.30;99.90;;;;;;5110245;28;20116;-63
2021/03/18 08:47:56;;;;;;;21.25;11.32;;;4.50;99.90;;;;;;5110158;28;20492;-62
2021/03/18 08:50:24;;;;;;;22.75;11.13;;;4.60;99.90;;;;;;5111709;28;20106;-63
2021/03/18 08:52:51;;;;;;;22.42;10.20;;;4.70;99.90;;;;;;5119396;28;20088;-63
2021/03/18 08:55:38;;;;;;;26.33;10.98;;;4.80;99.90;;;;;;5113472;28;20059;-63
2021/03/18 08:58:05;;;;;;;18.70;9.05;;;4.90;99.90;;;;;;5127493;27;20086;-62
2021/03/18 09:00:31;;;;;;;19.67;8.73;;;4.90;99.90;;;;;;5130148;28;20031;-62
2021/03/18 09:02:58;;;;;;;22.60;9.20;;;5.00;99.90;;;;;;5123352;28;20048;-62
2021/03/18 09:05:24;;;;;;;26.77;10.50;;;5.10;99.90;;;;;;5124979;28;20051;-63
2021/03/18 09:08:08;;;;;;;25.50;10.57;;;5.10;99.90;;;;;;5116787;28;20377;-62
2021/03/18 09:10:36;;;;;;;27.17;10.38;;;5.10;99.90;;;;;;5109836;28;20389;-62
2021/03/18 09:13:22;;;;;;;23.40;10.23;;;5.20;99.90;;;;;;5109836;28;20044;-63
2021/03/18 09:15:53;;;;;;;22.98;10.35;;;5.30;99.90;;;;;;5109141;28;20142;-63
2021/03/18 09:18:18;;;;;;;26.15;10.48;;;5.30;99.90;;;;;;5109528;28;20486;-63
2021/03/18 09:20:53;;;;;;;27.93;8.80;;;5.40;99.90;;;;;;5109807;28;20073;-63
2021/03/18 09:23:28;;;;;;;26.05;9.55;;;5.50;99.90;;;;;;5109290;28;20048;-63
2021/03/18 09:26:00;;;;;;;27.58;11.65;;;5.60;99.90;;;;;;5107869;28;20047;-63
2021/03/18 09:28:32;;;;;;;26.27;10.35;;;5.70;99.90;;;;;;5109229;27;20046;-63
2021/03/18 09:30:58;;;;;;;27.98;8.00;;;5.70;99.90;;;;;;5109006;28;20043;-63
2021/03/18 09:33:35;;;;;;;25.65;8.27;;;5.60;99.30;;;;;;5108660;28;20071;-63
2021/03/18 09:36:20;;;;;;;26.60;10.35;;;5.60;99.60;;;;;;5108975;27;20045;-62
2021/03/18 09:39:10;;;;;;;27.52;9.88;;;5.70;99.70;;;;;;5109760;28;20092;-62
2021/03/18 09:41:48;;;;;;;24.73;7.43;;;5.70;99.50;;;;;;5101038;28;20124;-64
2021/03/18 09:44:13;;;;;;;19.58;6.65;;;5.70;99.20;;;;;;5108893;28;20458;-64
2021/03/18 09:46:46;;;;;;;22.83;7.07;;;5.60;99.60;;;;;;5109027;28;20077;-64
2021/03/18 09:49:11;;;;;;;22.92;7.50;;;5.70;99.70;;;;;;5108914;28;20617;-64
2021/03/18 09:51:40;;;;;;;19.77;7.37;;;5.70;99.60;;;;;;5108479;28;20173;-64
2021/03/18 09:54:08;;;;;;;23.38;7.22;;;5.60;99.70;;;;;;5108679;28;20044;-64
2021/03/18 09:56:37;;;;;;;24.08;7.10;;;5.70;99.90;;;;;;5108953;28;20104;-64
2021/03/18 09:59:06;;;;;;;21.25;6.78;;;5.80;99.80;;;;;;5108581;28;20097;-64
2021/03/18 10:01:32;;;;;;;23.85;6.95;;;5.90;99.40;;;;;;5108954;28;20444;-63
2021/03/18 10:03:58;;;;;;;23.87;7.07;;;6.10;99.20;;;;;;5110838;28;20052;-65
2021/03/18 10:06:34;;;;;;;27.35;7.65;;;6.20;99.10;;;;;;5110598;28;20380;-64
2021/03/18 10:09:26;;;;;;;18.58;6.43;;;6.30;98.20;;;;;;5108053;28;20048;-64
2021/03/18 10:11:55;;;;;;;28.23;6.30;;;6.40;98.00;;;;;;5108674;28;20124;-63
2021/03/18 10:14:28;;;;;;;21.27;5.40;;;6.40;98.00;;;;;;5108611;28;20083;-60
2021/03/18 10:16:55;;;;;;;18.77;5.68;;;6.40;98.00;;;;;;5108965;28;20446;-59
2021/03/18 10:19:26;;;;;;;21.02;6.60;;;6.50;97.70;;;;;;5108579;28;20063;-62
2021/03/18 10:21:52;;;;;;;24.10;5.60;;;6.60;97.60;;;;;;5108276;28;20046;-62
2021/03/18 10:24:18;;;;;;;18.03;4.93;;;6.60;97.50;;;;;;5108226;28;20135;-63
2021/03/18 10:26:44;;;;;;;22.20;5.45;;;6.60;97.10;;;;;;5107924;28;20311;-63
2021/03/18 10:29:12;;;;;;;17.85;4.30;;;6.80;96.00;;;;;;5107895;28;20076;-63
2021/03/18 10:31:39;;;;;;;19.10;5.30;;;6.60;96.60;;;;;;5107460;28;20043;-63
2021/03/18 10:34:19;;;;;;;15.02;4.25;;;6.70;96.20;;;;;;5107533;28;20043;-62
2021/03/18 10:36:45;;;;;;;15.95;4.97;;;6.80;96.60;;;;;;5107611;28;20056;-62
2021/03/18 10:39:13;;;;;;;20.10;4.60;;;6.80;96.50;;;;;;5108163;28;20235;-62
2021/03/18 10:42:11;;;;;;;18.15;4.15;;;6.90;96.60;;;;;;5106373;28;20867;-62
2021/03/18 10:44:39;;;;;;;19.25;3.63;;;7.00;95.90;;;;;;5051921;28;20063;-62
2021/03/18 10:47:22;;;;;;;25.13;5.40;;;7.20;96.00;;;;;;5107575;28;20134;-63
2021/03/18 10:50:15;;;;;;;20.92;4.63;;;7.40;94.70;;;;;;5105759;28;20415;-62
2021/03/18 10:52:50;;;;;;;17.27;4.88;;;7.50;94.00;;;;;;5107591;28;20112;-62
2021/03/18 10:55:22;;;;;;;25.52;5.00;;;7.60;94.90;;;;;;5111004;28;20047;-62
2021/03/18 10:58:18;;;;;;;19.80;4.68;;;7.50;94.70;;;;;;5111516;28;20070;-63
2021/03/18 11:00:44;;;;;;;21.50;5.25;;;7.50;94.00;;;;;;5075039;27;20067;-62
2021/03/18 11:03:13;;;;;;;26.17;4.55;;;7.30;93.20;;;;;;5111615;28;20058;-62
2021/03/18 11:05:51;;;;;;;28.40;5.65;;;7.30;93.70;;;;;;5111241;28;20047;-62
2021/03/18 11:08:25;;;;;;;20.73;5.75;;;7.10;93.50;;;;;;5111230;28;20112;-62
2021/03/18 11:10:53;;;;;;;30.48;5.03;;;7.00;94.90;;;;;;5111163;28;20055;-62
2021/03/18 11:13:25;;;;;;;27.02;5.07;;;6.90;94.70;;;;;;5111320;28;20058;-62
2021/03/18 11:15:59;;;;;;;24.73;5.68;;;7.00;94.30;;;;;;5111034;28;20044;-62
2021/03/18 11:18:35;;;;;;;24.33;6.10;;;7.10;94.30;;;;;;5111012;28;20610;-62
2021/03/18 11:21:03;;;;;;;27.35;5.90;;;7.00;94.10;;;;;;5109374;28;20124;-62
2021/03/18 11:23:35;;;;;;;23.58;5.40;;;7.00;93.80;;;;;;5109361;28;20520;-62
2021/03/18 11:26:05;;;;;;;21.58;4.93;;;6.80;93.60;;;;;;5109476;28;20043;-62
2021/03/18 11:28:31;;;;;;;22.55;5.75;;;6.80;93.80;;;;;;5109179;28;20047;-62
2021/03/18 11:30:58;;;;;;;23.43;5.30;;;6.90;93.60;;;;;;5110970;28;20502;-61
2021/03/18 11:33:31;;;;;;;22.33;5.60;;;7.00;94.20;;;;;;5111132;28;20051;-63
2021/03/18 11:35:58;;;;;;;22.35;5.25;;;7.20;94.00;;;;;;5110716;28;20061;-64
2021/03/18 11:38:23;;;;;;;28.90;5.97;;;7.20;93.90;;;;;;5110592;28;20383;-63
2021/03/18 11:40:49;;;;;;;30.90;5.97;;;7.40;93.80;;;;;;5110623;28;20328;-62
2021/03/18 11:43:16;;;;;;;26.77;5.77;;;7.50;93.80;;;;;;5111967;28;20043;-64
2021/03/18 11:45:43;;;;;;;26.58;4.97;;;7.50;92.90;;;;;;5114512;28;20055;-62
2021/03/18 11:48:10;;;;;;;25.07;5.20;;;7.50;93.10;;;;;;5115742;28;20116;-63
2021/03/18 11:50:37;;;;;;;27.90;5.03;;;7.60;93.50;;;;;;5111138;28;20578;-58
2021/03/18 11:53:03;;;;;;;28.00;5.20;;;7.60;93.00;;;;;;5117804;28;20238;-58
2021/03/18 11:55:29;;;;;;;21.98;4.95;;;7.60;93.30;;;;;;5114201;28;20051;-61
2021/03/18 11:57:58;;;;;;;20.60;4.70;;;7.60;93.50;;;;;;5109753;28;20105;-61
2021/03/18 12:00:30;;;;;;;20.53;5.27;;;7.40;92.90;;;;;;5110257;28;20344;-62
2021/03/18 12:02:57;;;;;;;22.60;4.75;;;7.40;93.80;;;;;;5109876;28;20690;-62
2021/03/18 12:05:24;;;;;;;20.00;4.40;;;7.30;94.20;;;;;;5109507;28;20059;-62
2021/03/18 12:07:50;;;;;;;25.63;5.43;;;7.20;94.00;;;;;;5109734;28;20066;-62
2021/03/18 12:10:16;;;;;;;28.47;5.93;;;6.80;95.50;;;;;;5109752;28;20044;-62
2021/03/18 12:12:42;;;;;;;43.70;5.55;;;6.40;98.00;;;;;;5109308;28;20044;-61
2021/03/18 12:15:10;;;;;;;21.13;4.33;;;6.20;99.90;;;;;;5109761;28;20039;-61
2021/03/18 12:17:36;;;;;;;13.82;3.63;;;5.90;99.90;;;;;;5109590;28;20502;-61
2021/03/18 12:20:05;;;;;;;18.95;3.97;;;5.80;99.90;;;;;;5109703;28;20131;-61
2021/03/18 12:22:31;;;;;;;19.75;3.88;;;5.80;99.90;;;;;;5109082;28;20088;-58
2021/03/18 12:24:57;;;;;;;23.80;4.77;;;6.00;99.90;;;;;;5109590;28;20115;-60
2021/03/18 12:27:23;;;;;;;21.40;3.88;;;6.20;99.90;;;;;;5109778;28;20392;-60
2021/03/18 12:29:49;;;;;;;17.77;3.97;;;6.40;99.90;;;;;;5109433;28;20130;-60
2021/03/18 12:32:14;;;;;;;20.90;3.93;;;6.70;99.90;;;;;;5108899;28;20075;-60
2021/03/18 12:34:40;;;;;;;22.07;4.30;;;6.60;99.90;;;;;;5109447;28;20169;-60
2021/03/18 12:37:06;;;;;;;20.33;4.07;;;6.50;99.90;;;;;;5109522;28;20059;-60
2021/03/18 12:39:32;;;;;;;19.80;4.03;;;6.50;99.90;;;;;;5109325;28;20044;-62
2021/03/18 12:41:58;;;;;;;21.73;4.10;;;6.50;99.90;;;;;;5107609;28;20104;-61
2021/03/18 12:44:23;;;;;;;17.40;3.90;;;6.50;99.90;;;;;;5109360;28;20406;-62
2021/03/18 12:46:49;;;;;;;20.60;3.50;;;6.60;99.70;;;;;;5109495;28;20308;-61
2021/03/18 12:49:15;;;;;;;19.90;3.67;;;6.90;99.90;;;;;;5109569;28;20051;-61
2021/03/18 12:51:40;;;;;;;12.17;3.10;;;7.00;99.50;;;;;;5107067;28;20048;-61
2021/03/18 12:54:06;;;;;;;17.87;4.10;;;7.10;98.10;;;;;;5109437;28;20052;-62